Blue Bay — V2CE6 — position and weather

sailwx.info

Track history (hours):
 
Tides and Currents Weather Stations Pressure Air Temp Water Temp Dewpoint Dewpoint Depression Visibility Wind Speed Wind Dir Waves Ship Positions

Blue Bay

Last reported at 2015-Sep-03 21:13 UTC. Time now 2015-Sep-04 18:47 UTC.
Position N 46°13' W 002°10'.

Length 89 m; draft 5.5 m.

Type: Cargo ship. MMSI: 304519000.

Date/timePositionNaut miles runAvg speedWind from/ knotsBaromVisibWave heightAir tempDewpointWater temp
2015-Sep-03 21:13N 46°13' W 002°10'710.3
2015-Sep-03 20:32N 46°17' W 002°03'1010.2
2015-Sep-03 19:33N 46°24' W 001°52'7 6.5
2015-Sep-03 18:33N 46°30' W 001°47'0 0.0
2015-Sep-03 17:31N 46°30' W 001°47'0 0.0
2015-Sep-03 16:31N 46°30' W 001°47'0 0.0
2015-Sep-03 15:31N 46°30' W 001°47'0 0.0
2015-Sep-03 14:31N 46°30' W 001°47'0 0.0
2015-Sep-03 13:31N 46°30' W 001°47'0 0.0
2015-Sep-03 12:31N 46°30' W 001°47'0 0.0
2015-Sep-03 11:31N 46°30' W 001°47'0 0.0
2015-Sep-03 10:31N 46°30' W 001°47'0 0.0
2015-Sep-03 09:31N 46°30' W 001°47'0 0.0
2015-Sep-03 08:31N 46°30' W 001°47'0 0.0
2015-Sep-03 07:31N 46°30' W 001°47'2 1.8
2015-Sep-03 06:31N 46°28' W 001°47'0 0.2
2015-Sep-03 05:34N 46°28' W 001°47'0 0.0
2015-Sep-03 04:33N 46°28' W 001°47'0 0.0
2015-Sep-03 03:33N 46°28' W 001°47'0 0.0
2015-Sep-03 02:33N 46°28' W 001°47'0 0.0
2015-Sep-03 01:33N 46°28' W 001°47'0 0.0
2015-Sep-03 00:33N 46°28' W 001°47'0 0.0
2015-Sep-02 23:33N 46°28' W 001°47'0 0.0
2015-Sep-02 22:34N 46°28' W 001°47'0 0.1
2015-Sep-02 21:34N 46°28' W 001°47'0 0.0
2015-Sep-02 20:34N 46°28' W 001°47'0 0.0
2015-Sep-02 19:34N 46°28' W 001°47'0 0.0
2015-Sep-02 18:33N 46°28' W 001°47'0 0.0
2015-Sep-02 17:33N 46°28' W 001°47'0 0.0
2015-Sep-02 16:33N 46°28' W 001°47'0 0.0
2015-Sep-02 15:33N 46°28' W 001°47'0 0.0
2015-Sep-02 14:34N 46°28' W 001°47'0 0.0
2015-Sep-02 13:33N 46°28' W 001°47'0 0.0
2015-Sep-02 12:34N 46°28' W 001°47'0 0.1
2015-Sep-02 11:34N 46°28' W 001°47'0 0.0
2015-Sep-02 10:34N 46°28' W 001°47'0 0.0
2015-Sep-02 09:33N 46°28' W 001°47'0 0.0
2015-Sep-02 08:34N 46°28' W 001°47'0 0.0
2015-Sep-02 07:34N 46°28' W 001°47'0 0.0
2015-Sep-02 06:33N 46°28' W 001°47'0 0.0
2015-Sep-02 05:33N 46°28' W 001°47'2 2.4
2015-Sep-02 04:33N 46°26' W 001°49'10 9.9
2015-Sep-02 03:33N 46°30' W 002°02'1010.4
2015-Sep-02 02:34N 46°36' W 002°15'1010.1
2015-Sep-02 01:33N 46°41' W 002°28'10 9.9
2015-Sep-02 00:33N 46°47' W 002°40'1110.0
2015-Sep-01 23:26N 46°53' W 002°53'9 9.8
2015-Sep-01 22:31N 46°59' W 003°03'1010.2
2015-Sep-01 21:34N 47°04' W 003°15'1010.4
2015-Sep-01 20:33N 47°11' W 003°27'1110.7
2015-Sep-01 19:33N 47°17' W 003°40'1110.9
2015-Sep-01 18:33N 47°24' W 003°53'1111.0
2015-Sep-01 17:33N 47°30' W 004°06'1211.3
2015-Sep-01 16:31N 47°37' W 004°20'45 6.5
2015-Sep-01 09:34N 48°21' W 004°34'4 4.3
2015-Sep-01 08:33N 48°23' W 004°28'0 0.0
2015-Sep-01 07:33N 48°23' W 004°28'0 0.0
2015-Sep-01 06:33N 48°23' W 004°28'0 0.0
2015-Sep-01 05:33N 48°23' W 004°28'0 0.0
2015-Sep-01 04:33N 48°23' W 004°28'0 0.0
2015-Sep-01 03:33N 48°23' W 004°28'0 0.0
2015-Sep-01 02:33N 48°23' W 004°28'0 0.0
2015-Sep-01 01:33N 48°23' W 004°28'0 0.0
2015-Sep-01 00:33N 48°23' W 004°28'0 0.0
2015-Aug-31 23:33N 48°23' W 004°28'0 0.0
2015-Aug-31 22:33N 48°23' W 004°28'0 0.0
2015-Aug-31 21:33N 48°23' W 004°28'0 0.0
2015-Aug-31 20:33N 48°23' W 004°28'0 0.0
2015-Aug-31 19:33N 48°23' W 004°28'0 0.0
2015-Aug-31 18:33N 48°23' W 004°28'0 0.0
2015-Aug-31 11:33N 48°23' W 004°28'0 0.0
2015-Aug-31 10:33N 48°23' W 004°28'0 0.0
2015-Aug-31 09:33N 48°23' W 004°28'0 0.0
2015-Aug-31 08:33N 48°23' W 004°28'0 0.0
2015-Aug-31 07:33N 48°23' W 004°28'0 0.0
2015-Aug-31 06:33N 48°23' W 004°28'0 0.0
2015-Aug-31 05:33N 48°23' W 004°28'0 0.0
2015-Aug-31 04:33N 48°23' W 004°28'0 0.0
2015-Aug-31 03:33N 48°23' W 004°28'0 0.0
2015-Aug-31 02:33N 48°23' W 004°28'0 0.0
2015-Aug-31 01:33N 48°23' W 004°28'0 0.0
2015-Aug-31 00:33N 48°23' W 004°28'0 0.0
2015-Aug-30 23:33N 48°23' W 004°28'0 0.0
2015-Aug-30 22:33N 48°23' W 004°28'0 0.0
2015-Aug-30 21:33N 48°23' W 004°28'1 1.3
2015-Aug-30 20:34N 48°22' W 004°29'9 8.9
2015-Aug-30 19:33N 48°18' W 004°41'10 9.6
2015-Aug-30 18:33N 48°16' W 004°55'1010.1
2015-Aug-30 17:33N 48°20' W 005°09'46 7.1
2015-Aug-30 11:06N 49°01' W 004°38'15210.3
2015-Aug-29 20:25N 50°18' W 001°15'8 6.4
2015-Aug-29 19:15N 50°20' W 001°04'17 8.3
2015-Aug-29 17:11N 50°25' W 000°38'810.9
2015-Aug-29 16:29N 50°27' W 000°27'1611.9
2015-Aug-29 15:10N 50°31' W 000°03'812.1
2015-Aug-29 14:31N 50°33' E 000°09'1111.9
2015-Aug-29 13:33N 50°37' E 000°26'1111.0
2015-Aug-29 12:34N 50°42' E 000°41'1010.0
2015-Aug-29 11:33N 50°47' E 000°54'9 9.1
2015-Aug-29 10:32N 50°53' E 001°06'9 9.1
2015-Aug-29 09:33N 50°58' E 001°17'1010.5
2015-Aug-29 08:33N 51°05' E 001°30'1313.2
2015-Aug-29 07:33N 51°14' E 001°46'1313.0
2015-Aug-29 06:33N 51°24' E 001°59'1110.5
2015-Aug-29 05:33N 51°21' E 002°15'1111.2
2015-Aug-29 04:33N 51°23' E 002°33'9 9.1
2015-Aug-29 03:34N 51°22' E 002°47'1010.2
2015-Aug-29 02:33N 51°22' E 003°04'9 9.5
2015-Aug-29 01:33N 51°23' E 003°19'9 9.3
2015-Aug-29 00:33N 51°25' E 003°33'6 6.2
2015-Aug-28 23:33N 51°23' E 003°43'5 4.9
2015-Aug-28 22:33N 51°20' E 003°49'3 3.3
2015-Aug-28 21:33N 51°17' E 003°50'7 7.0
2015-Aug-28 20:33N 51°10' E 003°48'2 1.5
2015-Aug-28 19:33N 51°09' E 003°48'0 0.0
2015-Aug-28 18:31N 51°09' E 003°48'0 0.0
2015-Aug-28 17:22N 51°09' E 003°48'0 0.0
2015-Aug-28 16:29N 51°09' E 003°48'0 0.0
2015-Aug-28 15:32N 51°09' E 003°48'0 0.0
2015-Aug-28 14:29N 51°09' E 003°48'0 0.0
2015-Aug-28 13:29N 51°09' E 003°48'0 0.0
2015-Aug-28 12:23N 51°09' E 003°48'0 0.0
2015-Aug-28 11:32N 51°09' E 003°48'0 0.0
2015-Aug-28 10:29N 51°09' E 003°48'0 0.0
2015-Aug-28 09:29N 51°09' E 003°48'0 0.0
2015-Aug-28 08:32N 51°09' E 003°48'0 0.0
2015-Aug-28 07:11N 51°09' E 003°48'0 0.0
2015-Aug-28 06:29N 51°09' E 003°48'0 0.0
2015-Aug-28 05:32N 51°09' E 003°48'0 0.0
2015-Aug-28 04:29N 51°09' E 003°48'0 0.0
2015-Aug-28 03:17N 51°09' E 003°48'0 0.0
2015-Aug-28 02:29N 51°09' E 003°48'0 0.0
2015-Aug-28 01:29N 51°09' E 003°48'0 0.0
2015-Aug-28 00:23N 51°09' E 003°48'0 0.0
2015-Aug-27 23:33N 51°09' E 003°48'0 0.0
2015-Aug-27 22:27N 51°09' E 003°48'0 0.0
2015-Aug-27 21:33N 51°09' E 003°48'0 0.0
2015-Aug-27 20:27N 51°09' E 003°48'0 0.0
2015-Aug-27 19:33N 51°09' E 003°48'0 0.0
2015-Aug-27 18:27N 51°09' E 003°48'2 2.3
2015-Aug-27 17:34N 51°07' E 003°45'2 1.8
2015-Aug-27 16:31N 51°05' E 003°44'0 0.0
2015-Aug-27 15:33N 51°05' E 003°44'0 0.0
2015-Aug-27 14:31N 51°05' E 003°44'0 0.0
2015-Aug-27 13:31N 51°05' E 003°44'0 0.0
2015-Aug-27 12:31N 51°05' E 003°44'0 0.0
2015-Aug-27 11:31N 51°05' E 003°44'0 0.0
2015-Aug-27 10:31N 51°05' E 003°44'0 0.0
2015-Aug-27 09:33N 51°05' E 003°44'0 0.0
2015-Aug-27 08:31N 51°05' E 003°44'0 0.0
2015-Aug-27 07:31N 51°05' E 003°44'0 0.0
2015-Aug-27 06:31N 51°05' E 003°44'0 0.0
2015-Aug-27 05:32N 51°05' E 003°44'0 0.0
2015-Aug-27 04:32N 51°05' E 003°44'0 0.0
2015-Aug-27 03:32N 51°05' E 003°44'0 0.0
2015-Aug-27 02:32N 51°05' E 003°44'0 0.0
2015-Aug-27 01:32N 51°05' E 003°44'0 0.0
2015-Aug-27 00:31N 51°05' E 003°44'0 0.0
2015-Aug-26 23:28N 51°05' E 003°44'0 0.0
2015-Aug-26 22:28N 51°05' E 003°44'0 0.0
2015-Aug-26 21:33N 51°05' E 003°44'0 0.0
2015-Aug-26 20:28N 51°05' E 003°44'0 0.0
2015-Aug-26 19:31N 51°05' E 003°44'0 0.0
2015-Aug-26 18:32N 51°05' E 003°44'0 0.0
2015-Aug-26 17:32N 51°05' E 003°44'0 0.0
2015-Aug-26 16:25N 51°05' E 003°44'0 0.0
2015-Aug-26 15:33N 51°05' E 003°44'0 0.0
2015-Aug-26 14:32N 51°05' E 003°44'0 0.0
2015-Aug-26 13:33N 51°05' E 003°44'0 0.0
2015-Aug-26 12:33N 51°05' E 003°44'0 0.0
2015-Aug-26 11:32N 51°05' E 003°44'0 0.0
2015-Aug-26 10:32N 51°05' E 003°44'0 0.0
2015-Aug-26 09:32N 51°05' E 003°44'0 0.0
2015-Aug-26 08:32N 51°05' E 003°44'0 0.0
2015-Aug-26 07:32N 51°05' E 003°44'0 0.0
2015-Aug-26 06:32N 51°05' E 003°44'0 0.0
2015-Aug-26 05:34N 51°05' E 003°44'0 0.0
2015-Aug-26 04:31N 51°05' E 003°44'0 0.0
2015-Aug-26 03:31N 51°05' E 003°44'0 0.0
2015-Aug-26 02:32N 51°05' E 003°44'0 0.0
2015-Aug-26 01:32N 51°05' E 003°44'0 0.0
2015-Aug-26 00:33N 51°05' E 003°44'0 0.0
2015-Aug-25 23:33N 51°05' E 003°44'0 0.0
2015-Aug-25 22:32N 51°05' E 003°44'0 0.0
2015-Aug-25 21:23N 51°05' E 003°44'0 0.0
2015-Aug-25 20:33N 51°05' E 003°44'0 0.0
2015-Aug-25 19:26N 51°05' E 003°44'0 0.0
2015-Aug-25 18:31N 51°05' E 003°44'0 0.0
2015-Aug-25 17:33N 51°05' E 003°44'0 0.0
2015-Aug-25 16:29N 51°05' E 003°44'0 0.0
2015-Aug-25 15:32N 51°05' E 003°44'0 0.0
2015-Aug-25 14:30N 51°05' E 003°44'0 0.0
2015-Aug-25 13:33N 51°05' E 003°44'0 0.0
2015-Aug-25 12:31N 51°05' E 003°44'0 0.0
2015-Aug-25 11:33N 51°05' E 003°44'0 0.0
2015-Aug-25 10:33N 51°05' E 003°44'0 0.0
2015-Aug-25 09:31N 51°05' E 003°44'0 0.0
2015-Aug-25 08:30N 51°05' E 003°44'0 0.0
2015-Aug-25 07:31N 51°05' E 003°44'0 0.0
2015-Aug-25 06:31N 51°05' E 003°44'0 0.0
2015-Aug-25 05:33N 51°05' E 003°44'0 0.0
2015-Aug-25 04:33N 51°05' E 003°44'0 0.0
2015-Aug-25 03:33N 51°05' E 003°44'0 0.0
2015-Aug-25 02:33N 51°05' E 003°44'0 0.0
2015-Aug-25 01:33N 51°05' E 003°44'0 0.0
2015-Aug-25 00:33N 51°05' E 003°44'0 0.0
2015-Aug-24 23:33N 51°05' E 003°44'0 0.0
2015-Aug-24 22:33N 51°05' E 003°44'0 0.0
2015-Aug-24 21:33N 51°05' E 003°44'  
Track history (hours):
 
Tides and Currents Weather Stations Pressure Air Temp Water Temp Dewpoint Dewpoint Depression Visibility Wind Speed Wind Dir Waves Ship Positions

Blue Bay

Last reported at 2015-Sep-03 21:13 UTC. Time now 2015-Sep-04 18:47 UTC.
Position N 46°13' W 002°10'.

Length 89 m; draft 5.5 m.

Type: Cargo ship. MMSI: 304519000.

Date/timePositionNaut miles runAvg speedWind from/ knotsBaromVisibWave heightAir tempDewpointWater temp
2015-Sep-03 21:13N 46°13' W 002°10'710.3
2015-Sep-03 20:32N 46°17' W 002°03'1010.2
2015-Sep-03 19:33N 46°24' W 001°52'7 6.5
2015-Sep-03 18:33N 46°30' W 001°47'0 0.0
2015-Sep-03 17:31N 46°30' W 001°47'0 0.0
2015-Sep-03 16:31N 46°30' W 001°47'0 0.0
2015-Sep-03 15:31N 46°30' W 001°47'0 0.0
2015-Sep-03 14:31N 46°30' W 001°47'0 0.0
2015-Sep-03 13:31N 46°30' W 001°47'0 0.0
2015-Sep-03 12:31N 46°30' W 001°47'0 0.0
2015-Sep-03 11:31N 46°30' W 001°47'0 0.0
2015-Sep-03 10:31N 46°30' W 001°47'0 0.0
2015-Sep-03 09:31N 46°30' W 001°47'0 0.0
2015-Sep-03 08:31N 46°30' W 001°47'0 0.0
2015-Sep-03 07:31N 46°30' W 001°47'2 1.8
2015-Sep-03 06:31N 46°28' W 001°47'0 0.2
2015-Sep-03 05:34N 46°28' W 001°47'0 0.0
2015-Sep-03 04:33N 46°28' W 001°47'0 0.0
2015-Sep-03 03:33N 46°28' W 001°47'0 0.0
2015-Sep-03 02:33N 46°28' W 001°47'0 0.0
2015-Sep-03 01:33N 46°28' W 001°47'0 0.0
2015-Sep-03 00:33N 46°28' W 001°47'0 0.0
2015-Sep-02 23:33N 46°28' W 001°47'0 0.0
2015-Sep-02 22:34N 46°28' W 001°47'0 0.1
2015-Sep-02 21:34N 46°28' W 001°47'0 0.0
2015-Sep-02 20:34N 46°28' W 001°47'0 0.0
2015-Sep-02 19:34N 46°28' W 001°47'0 0.0
2015-Sep-02 18:33N 46°28' W 001°47'0 0.0
2015-Sep-02 17:33N 46°28' W 001°47'0 0.0
2015-Sep-02 16:33N 46°28' W 001°47'0 0.0
2015-Sep-02 15:33N 46°28' W 001°47'0 0.0
2015-Sep-02 14:34N 46°28' W 001°47'0 0.0
2015-Sep-02 13:33N 46°28' W 001°47'0 0.0
2015-Sep-02 12:34N 46°28' W 001°47'0 0.1
2015-Sep-02 11:34N 46°28' W 001°47'0 0.0
2015-Sep-02 10:34N 46°28' W 001°47'0 0.0
2015-Sep-02 09:33N 46°28' W 001°47'0 0.0
2015-Sep-02 08:34N 46°28' W 001°47'0 0.0
2015-Sep-02 07:34N 46°28' W 001°47'0 0.0
2015-Sep-02 06:33N 46°28' W 001°47'0 0.0
2015-Sep-02 05:33N 46°28' W 001°47'2 2.4
2015-Sep-02 04:33N 46°26' W 001°49'10 9.9
2015-Sep-02 03:33N 46°30' W 002°02'1010.4
2015-Sep-02 02:34N 46°36' W 002°15'1010.1
2015-Sep-02 01:33N 46°41' W 002°28'10 9.9
2015-Sep-02 00:33N 46°47' W 002°40'1110.0
2015-Sep-01 23:26N 46°53' W 002°53'9 9.8
2015-Sep-01 22:31N 46°59' W 003°03'1010.2
2015-Sep-01 21:34N 47°04' W 003°15'1010.4
2015-Sep-01 20:33N 47°11' W 003°27'1110.7
2015-Sep-01 19:33N 47°17' W 003°40'1110.9
2015-Sep-01 18:33N 47°24' W 003°53'1111.0
2015-Sep-01 17:33N 47°30' W 004°06'1211.3
2015-Sep-01 16:31N 47°37' W 004°20'45 6.5
2015-Sep-01 09:34N 48°21' W 004°34'4 4.3
2015-Sep-01 08:33N 48°23' W 004°28'0 0.0
2015-Sep-01 07:33N 48°23' W 004°28'0 0.0
2015-Sep-01 06:33N 48°23' W 004°28'0 0.0
2015-Sep-01 05:33N 48°23' W 004°28'0 0.0
2015-Sep-01 04:33N 48°23' W 004°28'0 0.0
2015-Sep-01 03:33N 48°23' W 004°28'0 0.0
2015-Sep-01 02:33N 48°23' W 004°28'0 0.0
2015-Sep-01 01:33N 48°23' W 004°28'0 0.0
2015-Sep-01 00:33N 48°23' W 004°28'0 0.0
2015-Aug-31 23:33N 48°23' W 004°28'0 0.0
2015-Aug-31 22:33N 48°23' W 004°28'0 0.0
2015-Aug-31 21:33N 48°23' W 004°28'0 0.0
2015-Aug-31 20:33N 48°23' W 004°28'0 0.0
2015-Aug-31 19:33N 48°23' W 004°28'0 0.0
2015-Aug-31 18:33N 48°23' W 004°28'0 0.0
2015-Aug-31 11:33N 48°23' W 004°28'0 0.0
2015-Aug-31 10:33N 48°23' W 004°28'0 0.0
2015-Aug-31 09:33N 48°23' W 004°28'0 0.0
2015-Aug-31 08:33N 48°23' W 004°28'0 0.0
2015-Aug-31 07:33N 48°23' W 004°28'0 0.0
2015-Aug-31 06:33N 48°23' W 004°28'0 0.0
2015-Aug-31 05:33N 48°23' W 004°28'0 0.0
2015-Aug-31 04:33N 48°23' W 004°28'0 0.0
2015-Aug-31 03:33N 48°23' W 004°28'0 0.0
2015-Aug-31 02:33N 48°23' W 004°28'0 0.0
2015-Aug-31 01:33N 48°23' W 004°28'0 0.0
2015-Aug-31 00:33N 48°23' W 004°28'0 0.0
2015-Aug-30 23:33N 48°23' W 004°28'0 0.0
2015-Aug-30 22:33N 48°23' W 004°28'0 0.0
2015-Aug-30 21:33N 48°23' W 004°28'1 1.3
2015-Aug-30 20:34N 48°22' W 004°29'9 8.9
2015-Aug-30 19:33N 48°18' W 004°41'10 9.6
2015-Aug-30 18:33N 48°16' W 004°55'1010.1
2015-Aug-30 17:33N 48°20' W 005°09'46 7.1
2015-Aug-30 11:06N 49°01' W 004°38'15210.3
2015-Aug-29 20:25N 50°18' W 001°15'8 6.4
2015-Aug-29 19:15N 50°20' W 001°04'17 8.3
2015-Aug-29 17:11N 50°25' W 000°38'810.9
2015-Aug-29 16:29N 50°27' W 000°27'1611.9
2015-Aug-29 15:10N 50°31' W 000°03'812.1
2015-Aug-29 14:31N 50°33' E 000°09'1111.9
2015-Aug-29 13:33N 50°37' E 000°26'1111.0
2015-Aug-29 12:34N 50°42' E 000°41'1010.0
2015-Aug-29 11:33N 50°47' E 000°54'9 9.1
2015-Aug-29 10:32N 50°53' E 001°06'9 9.1
2015-Aug-29 09:33N 50°58' E 001°17'1010.5
2015-Aug-29 08:33N 51°05' E 001°30'1313.2
2015-Aug-29 07:33N 51°14' E 001°46'1313.0
2015-Aug-29 06:33N 51°24' E 001°59'1110.5
2015-Aug-29 05:33N 51°21' E 002°15'1111.2
2015-Aug-29 04:33N 51°23' E 002°33'9 9.1
2015-Aug-29 03:34N 51°22' E 002°47'1010.2
2015-Aug-29 02:33N 51°22' E 003°04'9 9.5
2015-Aug-29 01:33N 51°23' E 003°19'9 9.3
2015-Aug-29 00:33N 51°25' E 003°33'6 6.2
2015-Aug-28 23:33N 51°23' E 003°43'5 4.9
2015-Aug-28 22:33N 51°20' E 003°49'3 3.3
2015-Aug-28 21:33N 51°17' E 003°50'7 7.0
2015-Aug-28 20:33N 51°10' E 003°48'2 1.5
2015-Aug-28 19:33N 51°09' E 003°48'0 0.0
2015-Aug-28 18:31N 51°09' E 003°48'0 0.0
2015-Aug-28 17:22N 51°09' E 003°48'0 0.0
2015-Aug-28 16:29N 51°09' E 003°48'0 0.0
2015-Aug-28 15:32N 51°09' E 003°48'0 0.0
2015-Aug-28 14:29N 51°09' E 003°48'0 0.0
2015-Aug-28 13:29N 51°09' E 003°48'0 0.0
2015-Aug-28 12:23N 51°09' E 003°48'0 0.0
2015-Aug-28 11:32N 51°09' E 003°48'0 0.0
2015-Aug-28 10:29N 51°09' E 003°48'0 0.0
2015-Aug-28 09:29N 51°09' E 003°48'0 0.0
2015-Aug-28 08:32N 51°09' E 003°48'0 0.0
2015-Aug-28 07:11N 51°09' E 003°48'0 0.0
2015-Aug-28 06:29N 51°09' E 003°48'0 0.0
2015-Aug-28 05:32N 51°09' E 003°48'0 0.0
2015-Aug-28 04:29N 51°09' E 003°48'0 0.0
2015-Aug-28 03:17N 51°09' E 003°48'0 0.0
2015-Aug-28 02:29N 51°09' E 003°48'0 0.0
2015-Aug-28 01:29N 51°09' E 003°48'0 0.0
2015-Aug-28 00:23N 51°09' E 003°48'0 0.0
2015-Aug-27 23:33N 51°09' E 003°48'0 0.0
2015-Aug-27 22:27N 51°09' E 003°48'0 0.0
2015-Aug-27 21:33N 51°09' E 003°48'0 0.0
2015-Aug-27 20:27N 51°09' E 003°48'0 0.0
2015-Aug-27 19:33N 51°09' E 003°48'0 0.0
2015-Aug-27 18:27N 51°09' E 003°48'2 2.3
2015-Aug-27 17:34N 51°07' E 003°45'2 1.8
2015-Aug-27 16:31N 51°05' E 003°44'0 0.0
2015-Aug-27 15:33N 51°05' E 003°44'0 0.0
2015-Aug-27 14:31N 51°05' E 003°44'0 0.0
2015-Aug-27 13:31N 51°05' E 003°44'0 0.0
2015-Aug-27 12:31N 51°05' E 003°44'0 0.0
2015-Aug-27 11:31N 51°05' E 003°44'0 0.0
2015-Aug-27 10:31N 51°05' E 003°44'0 0.0
2015-Aug-27 09:33N 51°05' E 003°44'0 0.0
2015-Aug-27 08:31N 51°05' E 003°44'0 0.0
2015-Aug-27 07:31N 51°05' E 003°44'0 0.0
2015-Aug-27 06:31N 51°05' E 003°44'0 0.0
2015-Aug-27 05:32N 51°05' E 003°44'0 0.0
2015-Aug-27 04:32N 51°05' E 003°44'0 0.0
2015-Aug-27 03:32N 51°05' E 003°44'0 0.0
2015-Aug-27 02:32N 51°05' E 003°44'0 0.0
2015-Aug-27 01:32N 51°05' E 003°44'0 0.0
2015-Aug-27 00:31N 51°05' E 003°44'0 0.0
2015-Aug-26 23:28N 51°05' E 003°44'0 0.0
2015-Aug-26 22:28N 51°05' E 003°44'0 0.0
2015-Aug-26 21:33N 51°05' E 003°44'0 0.0
2015-Aug-26 20:28N 51°05' E 003°44'0 0.0
2015-Aug-26 19:31N 51°05' E 003°44'0 0.0
2015-Aug-26 18:32N 51°05' E 003°44'0 0.0
2015-Aug-26 17:32N 51°05' E 003°44'0 0.0
2015-Aug-26 16:25N 51°05' E 003°44'0 0.0
2015-Aug-26 15:33N 51°05' E 003°44'0 0.0
2015-Aug-26 14:32N 51°05' E 003°44'0 0.0
2015-Aug-26 13:33N 51°05' E 003°44'0 0.0
2015-Aug-26 12:33N 51°05' E 003°44'0 0.0
2015-Aug-26 11:32N 51°05' E 003°44'0 0.0
2015-Aug-26 10:32N 51°05' E 003°44'0 0.0
2015-Aug-26 09:32N 51°05' E 003°44'0 0.0
2015-Aug-26 08:32N 51°05' E 003°44'0 0.0
2015-Aug-26 07:32N 51°05' E 003°44'0 0.0
2015-Aug-26 06:32N 51°05' E 003°44'0 0.0
2015-Aug-26 05:34N 51°05' E 003°44'0 0.0
2015-Aug-26 04:31N 51°05' E 003°44'0 0.0
2015-Aug-26 03:31N 51°05' E 003°44'0 0.0
2015-Aug-26 02:32N 51°05' E 003°44'0 0.0
2015-Aug-26 01:32N 51°05' E 003°44'0 0.0
2015-Aug-26 00:33N 51°05' E 003°44'0 0.0
2015-Aug-25 23:33N 51°05' E 003°44'0 0.0
2015-Aug-25 22:32N 51°05' E 003°44'0 0.0
2015-Aug-25 21:23N 51°05' E 003°44'0 0.0
2015-Aug-25 20:33N 51°05' E 003°44'0 0.0
2015-Aug-25 19:26N 51°05' E 003°44'0 0.0
2015-Aug-25 18:31N 51°05' E 003°44'0 0.0
2015-Aug-25 17:33N 51°05' E 003°44'0 0.0
2015-Aug-25 16:29N 51°05' E 003°44'0 0.0
2015-Aug-25 15:32N 51°05' E 003°44'0 0.0
2015-Aug-25 14:30N 51°05' E 003°44'0 0.0
2015-Aug-25 13:33N 51°05' E 003°44'0 0.0
2015-Aug-25 12:31N 51°05' E 003°44'0 0.0
2015-Aug-25 11:33N 51°05' E 003°44'0 0.0
2015-Aug-25 10:33N 51°05' E 003°44'0 0.0
2015-Aug-25 09:31N 51°05' E 003°44'0 0.0
2015-Aug-25 08:30N 51°05' E 003°44'0 0.0
2015-Aug-25 07:31N 51°05' E 003°44'0 0.0
2015-Aug-25 06:31N 51°05' E 003°44'0 0.0
2015-Aug-25 05:33N 51°05' E 003°44'0 0.0
2015-Aug-25 04:33N 51°05' E 003°44'0 0.0
2015-Aug-25 03:33N 51°05' E 003°44'0 0.0
2015-Aug-25 02:33N 51°05' E 003°44'0 0.0
2015-Aug-25 01:33N 51°05' E 003°44'0 0.0
2015-Aug-25 00:33N 51°05' E 003°44'0 0.0
2015-Aug-24 23:33N 51°05' E 003°44'0 0.0
2015-Aug-24 22:33N 51°05' E 003°44'0 0.0
2015-Aug-24 21:33N 51°05' E 003°44'  

Dump ship's entire track history